Terminal Aerodrome Forecast
Issued by NWS Sioux Falls, SD

Home | Current Version | Previous Version | Text Only | Print | Product List | Glossary On
Versions: 1 2 3 4 5 6 7 8 9 10 11 12
000
FTUS43 KFSD 291120
TAFFSD
TAF
KFSD 291120Z 2912/3012 26007KT P6SM SKC
     FM291400 28012G17KT P6SM SKC
     FM291630 29018G27KT P6SM SKC
     FM300030 27005KT P6SM SKC=

USA.gov is the U.S. government's official web portal to all federal, state and local government web resources and services.